sensor_id;sensor_type;location;lat;lon;timestamp;P1;durP1;ratioP1;P2;durP2;ratioP2
70806;SDS011;58882;52.170;5.386;2023-02-03T00:00:05;13.55;;;2.72;;
70806;SDS011;58882;52.170;5.386;2023-02-03T00:02:40;11.13;;;2.22;;
70806;SDS011;58882;52.170;5.386;2023-02-03T00:05:33;9.57;;;2.15;;
70806;SDS011;58882;52.170;5.386;2023-02-03T00:08:08;10.70;;;2.08;;
70806;SDS011;58882;52.170;5.386;2023-02-03T00:11:03;12.07;;;2.10;;
70806;SDS011;58882;52.170;5.386;2023-02-03T00:13:44;9.90;;;2.00;;
70806;SDS011;58882;52.170;5.386;2023-02-03T00:16:31;11.02;;;2.55;;
70806;SDS011;58882;52.170;5.386;2023-02-03T00:19:12;11.35;;;2.10;;
70806;SDS011;58882;52.170;5.386;2023-02-03T00:21:58;13.27;;;2.13;;
70806;SDS011;58882;52.170;5.386;2023-02-03T00:24:38;10.43;;;2.00;;
70806;SDS011;58882;52.170;5.386;2023-02-03T00:27:25;9.85;;;2.30;;
70806;SDS011;58882;52.170;5.386;2023-02-03T00:30:06;11.25;;;2.05;;
70806;SDS011;58882;52.170;5.386;2023-02-03T00:32:52;11.38;;;2.20;;
70806;SDS011;58882;52.170;5.386;2023-02-03T00:35:33;8.98;;;2.00;;
70806;SDS011;58882;52.170;5.386;2023-02-03T00:38:26;15.88;;;2.20;;
70806;SDS011;58882;52.170;5.386;2023-02-03T00:41:08;11.85;;;2.20;;
70806;SDS011;58882;52.170;5.386;2023-02-03T00:44:01;12.85;;;2.00;;
70806;SDS011;58882;52.170;5.386;2023-02-03T00:46:41;11.00;;;1.85;;
70806;SDS011;58882;52.170;5.386;2023-02-03T00:49:28;6.72;;;2.00;;
70806;SDS011;58882;52.170;5.386;2023-02-03T00:52:08;11.80;;;2.00;;
70806;SDS011;58882;52.170;5.386;2023-02-03T00:54:55;10.50;;;1.70;;
70806;SDS011;58882;52.170;5.386;2023-02-03T01:00:22;9.05;;;1.88;;
70806;SDS011;58882;52.170;5.386;2023-02-03T01:03:02;11.32;;;2.53;;
70806;SDS011;58882;52.170;5.386;2023-02-03T01:08:46;8.13;;;1.95;;
70806;SDS011;58882;52.170;5.386;2023-02-03T01:11:33;10.02;;;1.80;;
70806;SDS011;58882;52.170;5.386;2023-02-03T01:14:13;10.07;;;2.17;;
70806;SDS011;58882;52.170;5.386;2023-02-03T01:17:00;12.85;;;2.25;;
70806;SDS011;58882;52.170;5.386;2023-02-03T01:19:41;11.77;;;1.95;;
70806;SDS011;58882;52.170;5.386;2023-02-03T01:22:28;12.30;;;2.22;;
70806;SDS011;58882;52.170;5.386;2023-02-03T01:25:08;12.65;;;2.30;;
70806;SDS011;58882;52.170;5.386;2023-02-03T01:27:55;10.75;;;2.30;;
70806;SDS011;58882;52.170;5.386;2023-02-03T01:30:35;7.32;;;1.90;;
70806;SDS011;58882;52.170;5.386;2023-02-03T01:33:22;12.10;;;2.10;;
70806;SDS011;58882;52.170;5.386;2023-02-03T01:36:02;8.93;;;1.80;;
70806;SDS011;58882;52.170;5.386;2023-02-03T01:38:50;11.93;;;2.40;;
70806;SDS011;58882;52.170;5.386;2023-02-03T01:41:33;11.50;;;1.90;;
70806;SDS011;58882;52.170;5.386;2023-02-03T01:47:22;7.88;;;1.63;;
70806;SDS011;58882;52.170;5.386;2023-02-03T01:50:21;10.82;;;1.88;;
70806;SDS011;58882;52.170;5.386;2023-02-03T01:53:09;10.68;;;2.08;;
70806;SDS011;58882;52.170;5.386;2023-02-03T01:55:56;9.65;;;1.67;;
70806;SDS011;58882;52.170;5.386;2023-02-03T01:58:38;7.78;;;1.80;;
70806;SDS011;58882;52.170;5.386;2023-02-03T02:01:27;9.90;;;1.73;;
70806;SDS011;58882;52.170;5.386;2023-02-03T02:04:10;9.80;;;1.88;;
70806;SDS011;58882;52.170;5.386;2023-02-03T02:06:56;11.52;;;1.83;;
70806;SDS011;58882;52.170;5.386;2023-02-03T02:09:39;9.73;;;1.95;;
70806;SDS011;58882;52.170;5.386;2023-02-03T02:12:26;7.72;;;1.58;;
70806;SDS011;58882;52.170;5.386;2023-02-03T02:15:07;12.10;;;2.20;;
70806;SDS011;58882;52.170;5.386;2023-02-03T02:21:02;7.97;;;1.52;;
70806;SDS011;58882;52.170;5.386;2023-02-03T02:33:02;8.02;;;1.90;;
70806;SDS011;58882;52.170;5.386;2023-02-03T02:39:21;9.02;;;1.60;;
70806;SDS011;58882;52.170;5.386;2023-02-03T02:45:06;6.70;;;1.40;;
70806;SDS011;58882;52.170;5.386;2023-02-03T02:48:22;7.03;;;1.40;;
70806;SDS011;58882;52.170;5.386;2023-02-03T02:51:07;8.38;;;1.55;;
70806;SDS011;58882;52.170;5.386;2023-02-03T02:54:04;6.22;;;1.30;;
70806;SDS011;58882;52.170;5.386;2023-02-03T02:56:42;9.93;;;1.63;;
70806;SDS011;58882;52.170;5.386;2023-02-03T02:59:38;8.18;;;1.42;;
70806;SDS011;58882;52.170;5.386;2023-02-03T03:02:12;12.00;;;1.45;;
70806;SDS011;58882;52.170;5.386;2023-02-03T03:05:08;6.55;;;1.35;;
70806;SDS011;58882;52.170;5.386;2023-02-03T03:07:53;8.82;;;1.42;;
70806;SDS011;58882;52.170;5.386;2023-02-03T03:10:50;6.15;;;1.40;;
70806;SDS011;58882;52.170;5.386;2023-02-03T03:13:37;5.30;;;1.38;;
70806;SDS011;58882;52.170;5.386;2023-02-03T03:16:26;7.40;;;1.17;;
70806;SDS011;58882;52.170;5.386;2023-02-03T03:19:11;5.25;;;1.20;;
70806;SDS011;58882;52.170;5.386;2023-02-03T03:22:05;8.75;;;1.30;;
70806;SDS011;58882;52.170;5.386;2023-02-03T03:24:50;4.90;;;1.10;;
70806;SDS011;58882;52.170;5.386;2023-02-03T03:28:00;6.05;;;1.20;;
70806;SDS011;58882;52.170;5.386;2023-02-03T03:30:46;12.25;;;1.42;;
70806;SDS011;58882;52.170;5.386;2023-02-03T03:33:33;5.13;;;1.17;;
70806;SDS011;58882;52.170;5.386;2023-02-03T03:39:24;6.47;;;1.27;;
70806;SDS011;58882;52.170;5.386;2023-02-03T03:42:05;6.50;;;1.10;;
70806;SDS011;58882;52.170;5.386;2023-02-03T03:45:26;3.22;;;0.90;;
70806;SDS011;58882;52.170;5.386;2023-02-03T03:48:14;6.10;;;1.17;;
70806;SDS011;58882;52.170;5.386;2023-02-03T03:51:55;5.57;;;0.90;;
70806;SDS011;58882;52.170;5.386;2023-02-03T03:54:40;4.47;;;1.13;;
70806;SDS011;58882;52.170;5.386;2023-02-03T04:00:11;9.15;;;1.30;;
70806;SDS011;58882;52.170;5.386;2023-02-03T04:03:10;6.60;;;1.20;;
70806;SDS011;58882;52.170;5.386;2023-02-03T04:05:54;6.50;;;1.20;;
70806;SDS011;58882;52.170;5.386;2023-02-03T04:08:41;7.43;;;1.40;;
70806;SDS011;58882;52.170;5.386;2023-02-03T04:11:21;5.78;;;1.30;;
70806;SDS011;58882;52.170;5.386;2023-02-03T04:14:32;7.93;;;1.42;;
70806;SDS011;58882;52.170;5.386;2023-02-03T04:17:18;8.18;;;1.00;;
70806;SDS011;58882;52.170;5.386;2023-02-03T04:20:06;6.55;;;1.35;;
70806;SDS011;58882;52.170;5.386;2023-02-03T04:22:46;6.63;;;0.95;;
70806;SDS011;58882;52.170;5.386;2023-02-03T04:25:32;10.68;;;1.55;;
70806;SDS011;58882;52.170;5.386;2023-02-03T04:28:12;3.78;;;1.00;;
70806;SDS011;58882;52.170;5.386;2023-02-03T04:31:06;6.15;;;1.38;;
70806;SDS011;58882;52.170;5.386;2023-02-03T04:33:46;6.32;;;1.15;;
70806;SDS011;58882;52.170;5.386;2023-02-03T04:36:33;5.72;;;1.20;;
70806;SDS011;58882;52.170;5.386;2023-02-03T04:39:13;7.20;;;1.40;;
70806;SDS011;58882;52.170;5.386;2023-02-03T04:42:07;6.78;;;1.10;;
70806;SDS011;58882;52.170;5.386;2023-02-03T04:45:02;7.28;;;1.30;;
70806;SDS011;58882;52.170;5.386;2023-02-03T04:50:29;5.90;;;1.15;;
70806;SDS011;58882;52.170;5.386;2023-02-03T04:53:09;8.35;;;1.10;;
70806;SDS011;58882;52.170;5.386;2023-02-03T04:56:04;6.28;;;1.10;;
70806;SDS011;58882;52.170;5.386;2023-02-03T04:58:36;8.65;;;1.27;;
70806;SDS011;58882;52.170;5.386;2023-02-03T05:04:11;6.10;;;0.98;;
70806;SDS011;58882;52.170;5.386;2023-02-03T05:07:04;7.07;;;1.10;;
70806;SDS011;58882;52.170;5.386;2023-02-03T05:12:31;7.68;;;1.23;;
70806;SDS011;58882;52.170;5.386;2023-02-03T05:15:11;7.18;;;1.20;;
70806;SDS011;58882;52.170;5.386;2023-02-03T05:17:58;9.77;;;1.38;;
70806;SDS011;58882;52.170;5.386;2023-02-03T05:20:39;7.78;;;1.50;;
70806;SDS011;58882;52.170;5.386;2023-02-03T05:23:25;6.80;;;1.05;;
70806;SDS011;58882;52.170;5.386;2023-02-03T05:26:08;5.88;;;1.17;;
70806;SDS011;58882;52.170;5.386;2023-02-03T05:28:54;9.95;;;1.38;;
70806;SDS011;58882;52.170;5.386;2023-02-03T05:34:21;6.93;;;1.40;;
70806;SDS011;58882;52.170;5.386;2023-02-03T05:37:01;10.88;;;1.35;;
70806;SDS011;58882;52.170;5.386;2023-02-03T05:39:48;11.98;;;1.45;;
70806;SDS011;58882;52.170;5.386;2023-02-03T05:42:35;5.25;;;1.20;;
70806;SDS011;58882;52.170;5.386;2023-02-03T05:48:02;5.45;;;1.23;;
70806;SDS011;58882;52.170;5.386;2023-02-03T05:53:29;9.00;;;1.30;;
70806;SDS011;58882;52.170;5.386;2023-02-03T05:56:09;5.88;;;1.23;;
70806;SDS011;58882;52.170;5.386;2023-02-03T05:58:56;8.68;;;1.60;;
70806;SDS011;58882;52.170;5.386;2023-02-03T06:01:50;6.95;;;1.83;;
70806;SDS011;58882;52.170;5.386;2023-02-03T06:04:30;10.27;;;1.35;;
70806;SDS011;58882;52.170;5.386;2023-02-03T06:07:17;5.43;;;1.10;;
70806;SDS011;58882;52.170;5.386;2023-02-03T06:09:58;7.97;;;1.30;;
70806;SDS011;58882;52.170;5.386;2023-02-03T06:12:44;11.27;;;1.40;;
70806;SDS011;58882;52.170;5.386;2023-02-03T06:15:24;12.05;;;1.48;;
70806;SDS011;58882;52.170;5.386;2023-02-03T06:21:05;7.68;;;1.15;;
70806;SDS011;58882;52.170;5.386;2023-02-03T06:23:45;6.90;;;1.50;;
70806;SDS011;58882;52.170;5.386;2023-02-03T06:26:39;10.07;;;1.38;;
70806;SDS011;58882;52.170;5.386;2023-02-03T06:29:13;6.60;;;1.00;;
70806;SDS011;58882;52.170;5.386;2023-02-03T06:34:47;8.95;;;1.30;;
70806;SDS011;58882;52.170;5.386;2023-02-03T06:37:33;6.13;;;1.27;;
70806;SDS011;58882;52.170;5.386;2023-02-03T06:40:13;6.05;;;1.40;;
70806;SDS011;58882;52.170;5.386;2023-02-03T06:45:48;8.40;;;1.42;;
70806;SDS011;58882;52.170;5.386;2023-02-03T06:51:22;8.30;;;1.38;;
70806;SDS011;58882;52.170;5.386;2023-02-03T06:54:15;10.52;;;1.50;;
70806;SDS011;58882;52.170;5.386;2023-02-03T06:56:49;6.40;;;1.40;;
70806;SDS011;58882;52.170;5.386;2023-02-03T07:02:16;10.50;;;1.40;;
70806;SDS011;58882;52.170;5.386;2023-02-03T07:07:42;12.15;;;1.83;;
70806;SDS011;58882;52.170;5.386;2023-02-03T07:13:16;8.07;;;1.52;;
70806;SDS011;58882;52.170;5.386;2023-02-03T07:18:44;7.65;;;1.60;;
70806;SDS011;58882;52.170;5.386;2023-02-03T07:21:23;11.70;;;1.58;;
70806;SDS011;58882;52.170;5.386;2023-02-03T07:24:10;6.28;;;1.30;;
70806;SDS011;58882;52.170;5.386;2023-02-03T07:26:51;11.70;;;1.50;;
70806;SDS011;58882;52.170;5.386;2023-02-03T07:29:38;9.05;;;1.75;;
70806;SDS011;58882;52.170;5.386;2023-02-03T07:32:19;9.57;;;1.60;;
70806;SDS011;58882;52.170;5.386;2023-02-03T07:35:05;10.38;;;1.35;;
70806;SDS011;58882;52.170;5.386;2023-02-03T07:37:47;8.43;;;1.38;;
70806;SDS011;58882;52.170;5.386;2023-02-03T07:40:33;9.45;;;1.27;;
70806;SDS011;58882;52.170;5.386;2023-02-03T07:43:27;5.25;;;1.20;;
70806;SDS011;58882;52.170;5.386;2023-02-03T07:46:07;10.77;;;1.50;;
70806;SDS011;58882;52.170;5.386;2023-02-03T07:48:54;7.32;;;1.40;;
70806;SDS011;58882;52.170;5.386;2023-02-03T07:51:27;9.07;;;1.52;;
70806;SDS011;58882;52.170;5.386;2023-02-03T07:54:21;10.32;;;1.50;;
70806;SDS011;58882;52.170;5.386;2023-02-03T07:56:55;11.85;;;1.55;;
70806;SDS011;58882;52.170;5.386;2023-02-03T07:59:48;10.75;;;1.75;;
70806;SDS011;58882;52.170;5.386;2023-02-03T08:02:37;6.55;;;1.42;;
70806;SDS011;58882;52.170;5.386;2023-02-03T08:05:23;7.50;;;1.30;;
70806;SDS011;58882;52.170;5.386;2023-02-03T08:10:57;9.38;;;1.70;;
70806;SDS011;58882;52.170;5.386;2023-02-03T08:13:31;6.55;;;1.15;;
70806;SDS011;58882;52.170;5.386;2023-02-03T08:16:24;6.13;;;1.20;;
70806;SDS011;58882;52.170;5.386;2023-02-03T08:19:04;11.30;;;1.58;;
70806;SDS011;58882;52.170;5.386;2023-02-03T08:21:51;15.00;;;1.30;;
70806;SDS011;58882;52.170;5.386;2023-02-03T08:24:32;7.25;;;1.25;;
70806;SDS011;58882;52.170;5.386;2023-02-03T08:27:19;8.25;;;1.13;;
70806;SDS011;58882;52.170;5.386;2023-02-03T08:30:01;9.48;;;1.58;;
70806;SDS011;58882;52.170;5.386;2023-02-03T08:32:48;6.60;;;1.38;;
70806;SDS011;58882;52.170;5.386;2023-02-03T08:35:27;6.47;;;1.20;;
70806;SDS011;58882;52.170;5.386;2023-02-03T08:38:15;8.10;;;1.45;;
70806;SDS011;58882;52.170;5.386;2023-02-03T08:43:46;6.97;;;1.23;;
70806;SDS011;58882;52.170;5.386;2023-02-03T08:46:33;6.28;;;1.35;;
70806;SDS011;58882;52.170;5.386;2023-02-03T08:52:02;7.05;;;1.35;;
70806;SDS011;58882;52.170;5.386;2023-02-03T08:54:37;9.32;;;1.63;;
70806;SDS011;58882;52.170;5.386;2023-02-03T08:57:33;7.53;;;1.75;;
70806;SDS011;58882;52.170;5.386;2023-02-03T09:00:15;9.38;;;1.40;;
70806;SDS011;58882;52.170;5.386;2023-02-03T09:03:01;9.68;;;1.67;;
70806;SDS011;58882;52.170;5.386;2023-02-03T09:05:43;10.90;;;1.35;;
70806;SDS011;58882;52.170;5.386;2023-02-03T09:08:30;5.45;;;1.40;;
70806;SDS011;58882;52.170;5.386;2023-02-03T09:13:57;10.35;;;1.50;;
70806;SDS011;58882;52.170;5.386;2023-02-03T09:16:39;7.05;;;1.13;;
70806;SDS011;58882;52.170;5.386;2023-02-03T09:19:25;7.05;;;1.75;;
70806;SDS011;58882;52.170;5.386;2023-02-03T09:22:08;8.65;;;1.40;;
70806;SDS011;58882;52.170;5.386;2023-02-03T09:24:54;8.52;;;1.60;;
70806;SDS011;58882;52.170;5.386;2023-02-03T09:30:21;7.15;;;1.42;;
70806;SDS011;58882;52.170;5.386;2023-02-03T09:33:01;9.40;;;1.35;;
70806;SDS011;58882;52.170;5.386;2023-02-03T09:35:52;7.72;;;1.20;;
70806;SDS011;58882;52.170;5.386;2023-02-03T09:38:33;9.80;;;1.60;;
70806;SDS011;58882;52.170;5.386;2023-02-03T09:41:35;5.22;;;1.35;;
70806;SDS011;58882;52.170;5.386;2023-02-03T09:47:10;8.85;;;1.45;;
70806;SDS011;58882;52.170;5.386;2023-02-03T09:50:17;7.07;;;1.30;;
70806;SDS011;58882;52.170;5.386;2023-02-03T09:52:57;10.20;;;1.92;;
70806;SDS011;58882;52.170;5.386;2023-02-03T09:55:54;7.63;;;1.20;;
70806;SDS011;58882;52.170;5.386;2023-02-03T09:58:34;9.65;;;1.45;;
70806;SDS011;58882;52.170;5.386;2023-02-03T10:01:20;7.78;;;1.40;;
70806;SDS011;58882;52.170;5.386;2023-02-03T10:04:23;7.20;;;1.65;;
70806;SDS011;58882;52.170;5.386;2023-02-03T10:10:45;8.60;;;1.65;;
70806;SDS011;58882;52.170;5.386;2023-02-03T10:13:52;7.25;;;1.52;;
70806;SDS011;58882;52.170;5.386;2023-02-03T10:22:44;6.95;;;1.20;;
70806;SDS011;58882;52.170;5.386;2023-02-03T10:25:36;5.85;;;1.40;;
70806;SDS011;58882;52.170;5.386;2023-02-03T10:28:17;6.05;;;1.60;;
70806;SDS011;58882;52.170;5.386;2023-02-03T10:31:11;8.43;;;1.60;;
70806;SDS011;58882;52.170;5.386;2023-02-03T10:33:59;8.00;;;1.50;;
70806;SDS011;58882;52.170;5.386;2023-02-03T10:37:02;7.80;;;1.58;;
70806;SDS011;58882;52.170;5.386;2023-02-03T10:39:49;7.30;;;1.40;;
70806;SDS011;58882;52.170;5.386;2023-02-03T10:42:46;8.73;;;1.80;;
70806;SDS011;58882;52.170;5.386;2023-02-03T10:45:46;8.75;;;1.73;;
70806;SDS011;58882;52.170;5.386;2023-02-03T10:48:32;9.88;;;1.55;;
70806;SDS011;58882;52.170;5.386;2023-02-03T10:57:05;6.88;;;1.60;;
70806;SDS011;58882;52.170;5.386;2023-02-03T11:00:06;8.68;;;1.90;;
70806;SDS011;58882;52.170;5.386;2023-02-03T11:06:24;6.93;;;1.48;;
70806;SDS011;58882;52.170;5.386;2023-02-03T11:09:20;8.23;;;1.60;;
70806;SDS011;58882;52.170;5.386;2023-02-03T11:12:23;10.30;;;2.13;;
70806;SDS011;58882;52.170;5.386;2023-02-03T11:17:50;10.15;;;1.48;;
70806;SDS011;58882;52.170;5.386;2023-02-03T11:20:30;10.23;;;1.42;;
70806;SDS011;58882;52.170;5.386;2023-02-03T11:23:28;6.82;;;1.60;;
70806;SDS011;58882;52.170;5.386;2023-02-03T11:26:08;7.28;;;1.42;;
70806;SDS011;58882;52.170;5.386;2023-02-03T11:29:04;9.73;;;1.70;;
70806;SDS011;58882;52.170;5.386;2023-02-03T11:31:39;5.82;;;1.50;;
70806;SDS011;58882;52.170;5.386;2023-02-03T11:34:43;6.63;;;1.40;;
70806;SDS011;58882;52.170;5.386;2023-02-03T11:37:32;7.70;;;1.60;;
70806;SDS011;58882;52.170;5.386;2023-02-03T11:43:15;7.75;;;1.80;;
70806;SDS011;58882;52.170;5.386;2023-02-03T11:45:59;10.32;;;1.65;;
70806;SDS011;58882;52.170;5.386;2023-02-03T11:51:50;9.07;;;1.73;;
70806;SDS011;58882;52.170;5.386;2023-02-03T11:57:33;5.72;;;1.65;;
70806;SDS011;58882;52.170;5.386;2023-02-03T12:00:53;7.05;;;1.50;;
70806;SDS011;58882;52.170;5.386;2023-02-03T12:15:29;9.25;;;1.67;;
70806;SDS011;58882;52.170;5.386;2023-02-03T12:30:11;7.53;;;1.40;;
70806;SDS011;58882;52.170;5.386;2023-02-03T12:33:01;9.15;;;1.50;;
70806;SDS011;58882;52.170;5.386;2023-02-03T12:36:08;7.93;;;1.58;;
70806;SDS011;58882;52.170;5.386;2023-02-03T12:38:53;8.80;;;1.40;;
70806;SDS011;58882;52.170;5.386;2023-02-03T12:41:57;8.38;;;1.60;;
70806;SDS011;58882;52.170;5.386;2023-02-03T12:45:00;8.35;;;1.60;;
70806;SDS011;58882;52.170;5.386;2023-02-03T12:47:48;9.50;;;1.90;;
70806;SDS011;58882;52.170;5.386;2023-02-03T12:50:51;6.10;;;1.70;;
70806;SDS011;58882;52.170;5.386;2023-02-03T12:53:37;8.68;;;1.65;;
70806;SDS011;58882;52.170;5.386;2023-02-03T12:56:40;7.82;;;1.80;;
70806;SDS011;58882;52.170;5.386;2023-02-03T12:59:23;11.77;;;1.98;;
70806;SDS011;58882;52.170;5.386;2023-02-03T13:02:17;9.07;;;1.63;;
70806;SDS011;58882;52.170;5.386;2023-02-03T13:05:00;8.20;;;1.70;;
70806;SDS011;58882;52.170;5.386;2023-02-03T13:08:00;8.25;;;1.80;;
70806;SDS011;58882;52.170;5.386;2023-02-03T13:10:49;9.02;;;1.90;;
70806;SDS011;58882;52.170;5.386;2023-02-03T13:13:51;11.45;;;2.97;;
70806;SDS011;58882;52.170;5.386;2023-02-03T13:16:35;9.73;;;1.70;;
70806;SDS011;58882;52.170;5.386;2023-02-03T13:19:30;10.93;;;1.88;;
70806;SDS011;58882;52.170;5.386;2023-02-03T13:22:21;10.40;;;1.95;;
70806;SDS011;58882;52.170;5.386;2023-02-03T13:28:30;13.07;;;2.00;;
70806;SDS011;58882;52.170;5.386;2023-02-03T13:31:46;15.57;;;2.28;;
70806;SDS011;58882;52.170;5.386;2023-02-03T13:43:49;13.30;;;2.00;;
70806;SDS011;58882;52.170;5.386;2023-02-03T13:46:32;14.15;;;2.28;;
70806;SDS011;58882;52.170;5.386;2023-02-03T13:49:23;13.90;;;2.00;;
70806;SDS011;58882;52.170;5.386;2023-02-03T13:52:21;10.38;;;1.80;;
70806;SDS011;58882;52.170;5.386;2023-02-03T13:55:24;14.27;;;2.30;;
70806;SDS011;58882;52.170;5.386;2023-02-03T13:58:17;18.40;;;2.25;;
70806;SDS011;58882;52.170;5.386;2023-02-03T14:01:28;13.35;;;2.38;;
70806;SDS011;58882;52.170;5.386;2023-02-03T14:07:25;11.70;;;2.00;;
70806;SDS011;58882;52.170;5.386;2023-02-03T14:10:19;13.38;;;2.70;;
70806;SDS011;58882;52.170;5.386;2023-02-03T14:13:18;12.35;;;2.33;;
70806;SDS011;58882;52.170;5.386;2023-02-03T14:16:13;7.68;;;2.00;;
70806;SDS011;58882;52.170;5.386;2023-02-03T14:19:10;19.40;;;2.70;;
70806;SDS011;58882;52.170;5.386;2023-02-03T14:21:53;18.27;;;2.55;;
70806;SDS011;58882;52.170;5.386;2023-02-03T14:24:51;12.25;;;2.38;;
70806;SDS011;58882;52.170;5.386;2023-02-03T14:27:28;13.70;;;2.33;;
70806;SDS011;58882;52.170;5.386;2023-02-03T14:30:23;12.68;;;2.70;;
70806;SDS011;58882;52.170;5.386;2023-02-03T14:35:49;13.98;;;2.38;;
70806;SDS011;58882;52.170;5.386;2023-02-03T14:41:18;11.50;;;2.20;;
70806;SDS011;58882;52.170;5.386;2023-02-03T14:50:19;13.90;;;2.20;;
70806;SDS011;58882;52.170;5.386;2023-02-03T14:58:55;13.02;;;2.55;;
70806;SDS011;58882;52.170;5.386;2023-02-03T15:07:08;14.25;;;2.90;;
70806;SDS011;58882;52.170;5.386;2023-02-03T15:10:02;10.80;;;2.20;;
70806;SDS011;58882;52.170;5.386;2023-02-03T15:12:44;18.40;;;2.53;;
70806;SDS011;58882;52.170;5.386;2023-02-03T15:15:45;19.88;;;2.60;;
70806;SDS011;58882;52.170;5.386;2023-02-03T15:18:27;14.55;;;2.33;;
70806;SDS011;58882;52.170;5.386;2023-02-03T15:21:22;15.77;;;2.47;;
70806;SDS011;58882;52.170;5.386;2023-02-03T15:23:57;15.70;;;2.80;;
70806;SDS011;58882;52.170;5.386;2023-02-03T15:26:52;17.05;;;2.50;;
70806;SDS011;58882;52.170;5.386;2023-02-03T15:29:29;15.38;;;2.45;;
70806;SDS011;58882;52.170;5.386;2023-02-03T15:32:25;21.67;;;2.90;;
70806;SDS011;58882;52.170;5.386;2023-02-03T15:35:06;18.13;;;2.95;;
70806;SDS011;58882;52.170;5.386;2023-02-03T15:38:09;20.60;;;2.83;;
70806;SDS011;58882;52.170;5.386;2023-02-03T15:41:21;20.02;;;3.00;;
70806;SDS011;58882;52.170;5.386;2023-02-03T15:44:13;14.95;;;2.53;;
70806;SDS011;58882;52.170;5.386;2023-02-03T15:47:20;26.80;;;4.05;;
70806;SDS011;58882;52.170;5.386;2023-02-03T15:53:03;16.45;;;2.50;;
70806;SDS011;58882;52.170;5.386;2023-02-03T15:55:56;14.30;;;2.30;;
70806;SDS011;58882;52.170;5.386;2023-02-03T15:58:34;19.77;;;2.85;;
70806;SDS011;58882;52.170;5.386;2023-02-03T16:01:37;12.48;;;2.60;;
70806;SDS011;58882;52.170;5.386;2023-02-03T16:04:19;17.45;;;2.70;;
70806;SDS011;58882;52.170;5.386;2023-02-03T16:07:12;16.02;;;2.50;;
70806;SDS011;58882;52.170;5.386;2023-02-03T16:09:59;19.23;;;3.17;;
70806;SDS011;58882;52.170;5.386;2023-02-03T16:12:52;15.23;;;2.60;;
70806;SDS011;58882;52.170;5.386;2023-02-03T16:15:27;18.48;;;2.72;;
70806;SDS011;58882;52.170;5.386;2023-02-03T16:18:20;18.73;;;2.40;;
70806;SDS011;58882;52.170;5.386;2023-02-03T16:20:55;13.73;;;2.38;;
70806;SDS011;58882;52.170;5.386;2023-02-03T16:26:22;17.45;;;2.70;;
70806;SDS011;58882;52.170;5.386;2023-02-03T16:29:17;16.40;;;2.78;;
70806;SDS011;58882;52.170;5.386;2023-02-03T16:32:15;16.05;;;2.30;;
70806;SDS011;58882;52.170;5.386;2023-02-03T16:35:29;17.70;;;3.05;;
70806;SDS011;58882;52.170;5.386;2023-02-03T16:38:29;14.48;;;2.70;;
70806;SDS011;58882;52.170;5.386;2023-02-03T16:41:41;16.70;;;3.13;;
70806;SDS011;58882;52.170;5.386;2023-02-03T16:44:53;18.13;;;2.78;;
70806;SDS011;58882;52.170;5.386;2023-02-03T16:47:53;15.57;;;2.50;;
70806;SDS011;58882;52.170;5.386;2023-02-03T16:51:09;17.13;;;2.85;;
70806;SDS011;58882;52.170;5.386;2023-02-03T16:53:48;14.73;;;2.65;;
70806;SDS011;58882;52.170;5.386;2023-02-03T16:59:23;18.15;;;2.92;;
70806;SDS011;58882;52.170;5.386;2023-02-03T17:02:09;12.77;;;2.50;;
70806;SDS011;58882;52.170;5.386;2023-02-03T17:04:50;14.45;;;2.75;;
70806;SDS011;58882;52.170;5.386;2023-02-03T17:07:36;16.20;;;2.92;;
70806;SDS011;58882;52.170;5.386;2023-02-03T17:10:10;14.88;;;2.47;;
70806;SDS011;58882;52.170;5.386;2023-02-03T17:13:05;11.93;;;2.20;;
70806;SDS011;58882;52.170;5.386;2023-02-03T17:15:40;12.73;;;2.72;;
70806;SDS011;58882;52.170;5.386;2023-02-03T17:18:36;15.52;;;2.83;;
70806;SDS011;58882;52.170;5.386;2023-02-03T17:21:19;14.70;;;2.75;;
70806;SDS011;58882;52.170;5.386;2023-02-03T17:24:07;14.15;;;2.45;;
70806;SDS011;58882;52.170;5.386;2023-02-03T17:26:48;12.32;;;2.35;;
70806;SDS011;58882;52.170;5.386;2023-02-03T17:29:36;13.82;;;2.20;;
70806;SDS011;58882;52.170;5.386;2023-02-03T17:32:17;14.02;;;2.30;;
70806;SDS011;58882;52.170;5.386;2023-02-03T17:37:51;14.68;;;2.45;;
70806;SDS011;58882;52.170;5.386;2023-02-03T17:40:38;17.42;;;2.80;;
70806;SDS011;58882;52.170;5.386;2023-02-03T17:43:44;14.07;;;2.70;;
70806;SDS011;58882;52.170;5.386;2023-02-03T17:46:56;16.88;;;2.85;;
70806;SDS011;58882;52.170;5.386;2023-02-03T17:49:48;12.02;;;2.47;;
70806;SDS011;58882;52.170;5.386;2023-02-03T17:52:58;13.10;;;2.45;;
70806;SDS011;58882;52.170;5.386;2023-02-03T17:55:38;15.63;;;2.30;;
70806;SDS011;58882;52.170;5.386;2023-02-03T17:58:29;12.93;;;2.60;;
70806;SDS011;58882;52.170;5.386;2023-02-03T18:01:07;16.05;;;2.78;;
70806;SDS011;58882;52.170;5.386;2023-02-03T18:04:05;12.18;;;2.95;;
70806;SDS011;58882;52.170;5.386;2023-02-03T18:06:47;16.27;;;2.63;;
70806;SDS011;58882;52.170;5.386;2023-02-03T18:09:40;17.50;;;2.80;;
70806;SDS011;58882;52.170;5.386;2023-02-03T18:12:14;13.40;;;2.70;;
70806;SDS011;58882;52.170;5.386;2023-02-03T18:17:41;16.58;;;2.78;;
70806;SDS011;58882;52.170;5.386;2023-02-03T18:23:08;12.90;;;2.30;;
70806;SDS011;58882;52.170;5.386;2023-02-03T18:28:35;12.85;;;2.60;;
70806;SDS011;58882;52.170;5.386;2023-02-03T18:31:29;16.02;;;2.67;;
70806;SDS011;58882;52.170;5.386;2023-02-03T18:36:56;15.25;;;2.50;;
70806;SDS011;58882;52.170;5.386;2023-02-03T18:42:23;15.95;;;2.83;;
70806;SDS011;58882;52.170;5.386;2023-02-03T18:47:50;13.95;;;2.58;;
70806;SDS011;58882;52.170;5.386;2023-02-03T18:53:24;18.88;;;2.45;;
70806;SDS011;58882;52.170;5.386;2023-02-03T18:58:54;12.35;;;2.28;;
70806;SDS011;58882;52.170;5.386;2023-02-03T19:01:29;13.88;;;2.75;;
70806;SDS011;58882;52.170;5.386;2023-02-03T19:04:23;14.02;;;2.83;;
70806;SDS011;58882;52.170;5.386;2023-02-03T19:09:50;14.48;;;3.10;;
70806;SDS011;58882;52.170;5.386;2023-02-03T19:12:24;16.30;;;3.10;;
70806;SDS011;58882;52.170;5.386;2023-02-03T19:17:58;12.70;;;2.85;;
70806;SDS011;58882;52.170;5.386;2023-02-03T19:20:44;13.00;;;2.92;;
70806;SDS011;58882;52.170;5.386;2023-02-03T19:23:18;17.67;;;3.30;;
70806;SDS011;58882;52.170;5.386;2023-02-03T19:28:45;17.13;;;2.95;;
70806;SDS011;58882;52.170;5.386;2023-02-03T19:34:15;18.40;;;3.35;;
70806;SDS011;58882;52.170;5.386;2023-02-03T19:37:09;14.25;;;2.85;;
70806;SDS011;58882;52.170;5.386;2023-02-03T19:42:36;17.17;;;2.80;;
70806;SDS011;58882;52.170;5.386;2023-02-03T19:48:04;15.77;;;3.28;;
70806;SDS011;58882;52.170;5.386;2023-02-03T19:53:33;13.95;;;2.97;;
70806;SDS011;58882;52.170;5.386;2023-02-03T19:56:08;18.80;;;3.25;;
70806;SDS011;58882;52.170;5.386;2023-02-03T20:01:43;13.32;;;3.17;;
70806;SDS011;58882;52.170;5.386;2023-02-03T20:04:44;19.75;;;3.28;;
70806;SDS011;58882;52.170;5.386;2023-02-03T20:07:18;12.27;;;2.70;;
70806;SDS011;58882;52.170;5.386;2023-02-03T20:10:13;16.88;;;3.03;;
70806;SDS011;58882;52.170;5.386;2023-02-03T20:15:41;11.82;;;3.13;;
70806;SDS011;58882;52.170;5.386;2023-02-03T20:21:07;18.13;;;3.30;;
70806;SDS011;58882;52.170;5.386;2023-02-03T20:26:34;17.70;;;3.47;;
70806;SDS011;58882;52.170;5.386;2023-02-03T20:32:02;20.02;;;3.25;;
70806;SDS011;58882;52.170;5.386;2023-02-03T20:34:45;16.88;;;2.95;;
70806;SDS011;58882;52.170;5.386;2023-02-03T20:37:32;16.27;;;2.92;;
70806;SDS011;58882;52.170;5.386;2023-02-03T20:40:15;16.27;;;3.58;;
70806;SDS011;58882;52.170;5.386;2023-02-03T20:43:14;18.65;;;3.00;;
70806;SDS011;58882;52.170;5.386;2023-02-03T20:46:13;12.02;;;2.40;;
70806;SDS011;58882;52.170;5.386;2023-02-03T20:51:42;11.80;;;2.40;;
70806;SDS011;58882;52.170;5.386;2023-02-03T20:57:14;12.25;;;2.88;;